Time;durP1;ratioP1;P1;durP2;ratioP2;P2;SDS_P1;SDS_P2;PMS_P1;PMS_P2;Temp;Humidity;BMP_temperature;BMP_pressure;BME280_temperature;BME280_humidity;BME280_pressure;Samples;Min_cycle;Max_cycle;Signal;HPM_P1;HPM_P2
2023/01/08 04:02:57;;;;;;;;;;;10.40;99.90;;;;;;5036188;23;19926;-76
2023/01/08 04:05:24;;;;;;;;;;;10.40;99.90;;;;;;4975635;28;19973;-73
2023/01/08 04:07:50;;;;;;;;;;;10.30;99.90;;;;;;4968842;28;19932;-73
2023/01/08 04:10:17;;;;;;;;;;;10.20;99.90;;;;;;4971097;28;19932;-73
2023/01/08 04:12:44;;;;;;;;;;;10.20;99.90;;;;;;4970520;28;19933;-74
2023/01/08 04:15:11;;;;;;;;;;;10.20;99.90;;;;;;4970624;28;19937;-73
2023/01/08 04:17:37;;;;;;;;;;;10.20;99.90;;;;;;4964236;28;19936;-73
2023/01/08 04:20:06;;;;;;;;;;;10.20;99.90;;;;;;4968535;28;19934;-74
2023/01/08 04:22:32;;;;;;;;;;;10.30;99.90;;;;;;4970911;28;19930;-73
2023/01/08 04:24:59;;;;;;;;;;;10.40;99.90;;;;;;4970898;28;19990;-76
2023/01/08 04:27:26;;;;;;;;;;;10.40;99.90;;;;;;4971436;28;20041;-75
2023/01/08 04:29:52;;;;;;;;;;;10.50;99.90;;;;;;4967002;28;19926;-76
2023/01/08 04:32:19;;;;;;;;;;;10.40;99.90;;;;;;4969625;28;19961;-73
2023/01/08 04:34:46;;;;;;;;;;;10.30;99.90;;;;;;4970285;28;19926;-73
2023/01/08 04:37:14;;;;;;;;;;;10.30;99.90;;;;;;4971591;28;19981;-76
2023/01/08 04:39:41;;;;;;;;;;;10.30;99.90;;;;;;4970788;28;19965;-74
2023/01/08 04:42:08;;;;;;;;;;;10.30;99.90;;;;;;4978933;28;19973;-73
2023/01/08 04:44:34;;;;;;;;;;;10.30;99.90;;;;;;4971386;28;20396;-73
2023/01/08 04:47:01;;;;;;;;;;;10.20;99.90;;;;;;4971582;28;19965;-74
2023/01/08 04:49:28;;;;;;;;;;;10.20;99.90;;;;;;4970455;28;19997;-73
2023/01/08 04:51:55;;;;;;;;;;;10.10;99.90;;;;;;4971151;28;19926;-74
2023/01/08 04:54:23;;;;;;;;;;;10.10;99.90;;;;;;4971178;28;20020;-73
2023/01/08 04:56:50;;;;;;;;;;;10.10;99.90;;;;;;4971584;28;20005;-73
2023/01/08 04:59:17;;;;;;;;;;;10.10;99.90;;;;;;4970209;28;19953;-73
2023/01/08 05:01:43;;;;;;;;;;;10.00;99.90;;;;;;4970936;28;19973;-72
2023/01/08 05:04:10;;;;;;;;;;;9.90;99.90;;;;;;4971349;28;19957;-76
2023/01/08 05:06:37;;;;;;;;;;;9.90;99.90;;;;;;4971140;28;19976;-73
2023/01/08 05:09:04;;;;;;;;;;;9.80;99.90;;;;;;4971953;28;19926;-73
2023/01/08 05:11:32;;;;;;;;;;;9.90;99.90;;;;;;4970867;28;20388;-76
2023/01/08 05:13:59;;;;;;;;;;;9.90;99.90;;;;;;4972041;28;19930;-74
2023/01/08 05:16:26;;;;;;;;;;;9.80;99.90;;;;;;4966053;28;20361;-73
2023/01/08 05:18:52;;;;;;;;;;;9.90;99.90;;;;;;4966686;28;20030;-73
2023/01/08 05:21:19;;;;;;;;;;;9.90;99.90;;;;;;4972234;28;19926;-76
2023/01/08 05:23:47;;;;;;;;;;;9.90;99.90;;;;;;4974831;28;19962;-73
2023/01/08 05:26:14;;;;;;;;;;;10.00;99.90;;;;;;4974803;28;19932;-79
2023/01/08 05:28:42;;;;;;;;;;;10.00;99.90;;;;;;4974449;28;20304;-75
2023/01/08 05:31:10;;;;;;;;;;;10.00;99.90;;;;;;4974489;28;19926;-74
2023/01/08 05:33:37;;;;;;;;;;;9.90;99.90;;;;;;4985407;28;19961;-76
2023/01/08 05:36:04;;;;;;;;;;;9.90;99.90;;;;;;4977700;28;19973;-76
2023/01/08 05:38:31;;;;;;;;;;;9.90;99.90;;;;;;4978100;28;19952;-76
2023/01/08 05:40:57;;;;;;;;;;;10.00;99.90;;;;;;4974280;28;19990;-75
2023/01/08 05:43:25;;;;;;;;;;;10.00;99.90;;;;;;4977764;28;19926;-78
2023/01/08 05:45:53;;;;;;;;;;;9.90;99.90;;;;;;4976084;28;20393;-73
2023/01/08 05:48:20;;;;;;;;;;;9.90;99.90;;;;;;4974300;28;20377;-71
2023/01/08 05:50:48;;;;;;;;;;;9.90;99.90;;;;;;4974011;28;20012;-75
2023/01/08 05:53:15;;;;;;;;;;;9.90;99.90;;;;;;4977369;28;19973;-75
2023/01/08 05:55:41;;;;;;;;;;;9.90;99.90;;;;;;4975818;28;20349;-73
2023/01/08 05:58:09;;;;;;;;;;;9.90;99.90;;;;;;4976707;28;19981;-74
2023/01/08 06:00:36;;;;;;;;;;;9.90;99.90;;;;;;4973718;28;19933;-73
2023/01/08 06:03:05;;;;;;;;;;;9.90;99.90;;;;;;4969553;28;19962;-72
2023/01/08 06:05:32;;;;;;;;;;;10.00;99.90;;;;;;4974181;28;19933;-75
2023/01/08 06:07:59;;;;;;;;;;;10.00;99.90;;;;;;4974438;28;20397;-73
2023/01/08 06:10:26;;;;;;;;;;;10.00;99.90;;;;;;4973833;28;19926;-74
2023/01/08 06:12:53;;;;;;;;;;;9.20;99.90;;;;;;4974197;28;19926;-73
2023/01/08 06:15:20;;;;;;;;;;;8.70;99.90;;;;;;4976494;28;19930;-72
2023/01/08 06:17:46;;;;;;;;;;;8.40;99.90;;;;;;4976349;28;19965;-75
2023/01/08 06:20:15;;;;;;;;;;;8.30;99.90;;;;;;4972822;28;19976;-73
2023/01/08 06:22:41;;;;;;;;;;;8.10;99.90;;;;;;4979754;28;20355;-71
2023/01/08 06:25:08;;;;;;;;;;;8.00;99.90;;;;;;4974297;28;20393;-76
2023/01/08 06:27:35;;;;;;;;;;;7.90;99.90;;;;;;4973451;28;20321;-74
2023/01/08 06:30:02;;;;;;;;;;;7.90;99.90;;;;;;4974027;28;20037;-76
2023/01/08 06:32:29;;;;;;;;;;;7.80;99.90;;;;;;4975528;28;20397;-74
2023/01/08 06:34:55;;;;;;;;;;;7.70;99.90;;;;;;4977143;28;19930;-76
2023/01/08 06:37:23;;;;;;;;;;;7.70;99.90;;;;;;4973383;28;20459;-73
2023/01/08 06:39:50;;;;;;;;;;;7.70;99.90;;;;;;4974281;28;19958;-74
2023/01/08 06:42:17;;;;;;;;;;;7.70;99.90;;;;;;4974625;28;19962;-73
2023/01/08 06:44:43;;;;;;;;;;;7.70;99.90;;;;;;4972888;28;19930;-76
2023/01/08 06:47:10;;;;;;;;;;;7.70;99.90;;;;;;4973077;28;20385;-75
2023/01/08 06:49:37;;;;;;;;;;;7.70;99.90;;;;;;4971161;28;20278;-73
2023/01/08 06:52:04;;;;;;;;;;;7.70;99.90;;;;;;4972868;28;20009;-74
2023/01/08 06:54:32;;;;;;;;;;;7.70;99.90;;;;;;4973270;28;19958;-77
2023/01/08 06:56:58;;;;;;;;;;;7.70;99.90;;;;;;4972873;28;19934;-73
2023/01/08 06:59:25;;;;;;;;;;;7.70;99.90;;;;;;4970985;28;20029;-74
2023/01/08 07:01:52;;;;;;;;;;;7.80;99.90;;;;;;4969281;28;19936;-74
2023/01/08 07:04:19;;;;;;;;;;;7.80;99.90;;;;;;4970879;28;19973;-74
2023/01/08 07:06:46;;;;;;;;;;;7.80;99.90;;;;;;4972854;28;19962;-74
2023/01/08 07:09:12;;;;;;;;;;;7.90;99.90;;;;;;4965637;28;19973;-74
2023/01/08 07:11:41;;;;;;;;;;;7.90;99.90;;;;;;4973047;28;20471;-74
2023/01/08 07:14:08;;;;;;;;;;;8.00;99.90;;;;;;4972564;28;19969;-74
2023/01/08 07:16:35;;;;;;;;;;;8.00;99.90;;;;;;4971655;28;19933;-74
2023/01/08 07:19:02;;;;;;;;;;;8.00;99.90;;;;;;4971429;28;20375;-74
2023/01/08 07:21:29;;;;;;;;;;;8.10;99.90;;;;;;4972367;28;20424;-75
2023/01/08 07:23:58;;;;;;;;;;;8.10;99.90;;;;;;4969159;28;19973;-76
2023/01/08 07:26:24;;;;;;;;;;;8.10;99.90;;;;;;4972706;28;20340;-75
2023/01/08 07:28:53;;;;;;;;;;;8.20;99.90;;;;;;4971559;28;19976;-75
2023/01/08 07:31:19;;;;;;;;;;;8.20;99.90;;;;;;4972942;28;19926;-77
2023/01/08 07:33:46;;;;;;;;;;;8.30;99.90;;;;;;4973476;28;20352;-75
2023/01/08 07:36:14;;;;;;;;;;;8.30;99.90;;;;;;4976735;28;19930;-78
2023/01/08 07:38:41;;;;;;;;;;;8.30;99.90;;;;;;4976690;28;19930;-75
2023/01/08 07:41:08;;;;;;;;;;;8.30;99.90;;;;;;4974333;28;19926;-76
2023/01/08 07:43:35;;;;;;;;;;;8.30;99.90;;;;;;4972544;28;19973;-77
2023/01/08 07:46:03;;;;;;;;;;;8.30;99.90;;;;;;4968792;28;20029;-75
2023/01/08 07:48:30;;;;;;;;;;;8.30;99.90;;;;;;4971822;28;19926;-76
2023/01/08 07:51:00;;;;;;;;;;;8.20;99.90;;;;;;4970023;28;19954;-76
2023/01/08 07:53:27;;;;;;;;;;;8.20;99.90;;;;;;4972379;28;20459;-75
2023/01/08 07:55:58;;;;;;;;;;;8.20;99.90;;;;;;4965451;28;19977;-76
2023/01/08 07:58:25;;;;;;;;;;;8.20;99.90;;;;;;4967976;28;19930;-79
2023/01/08 08:00:52;;;;;;;;;;;8.20;99.90;;;;;;4972416;28;19926;-76
2023/01/08 08:03:20;;;;;;;;;;;8.20;99.90;;;;;;4972098;28;19973;-75
2023/01/08 08:05:46;;;;;;;;;;;8.20;99.90;;;;;;4972147;28;20103;-75
2023/01/08 08:08:13;;;;;;;;;;;8.10;99.90;;;;;;4971914;28;19977;-79
2023/01/08 08:10:41;;;;;;;;;;;8.10;99.90;;;;;;4970541;28;20029;-75
2023/01/08 08:13:08;;;;;;;;;;;8.10;99.90;;;;;;4971813;28;20029;-73
2023/01/08 08:15:35;;;;;;;;;;;8.10;99.90;;;;;;4972007;28;20066;-75
2023/01/08 08:18:02;;;;;;;;;;;8.10;99.90;;;;;;4971891;28;19929;-75
2023/01/08 08:20:30;;;;;;;;;;;8.10;99.90;;;;;;4972165;28;19930;-74
2023/01/08 08:23:00;;;;;;;;;;;8.00;99.90;;;;;;4966258;28;19977;-76
2023/01/08 08:25:27;;;;;;;;;;;8.00;99.90;;;;;;4970510;28;19926;-75
2023/01/08 08:27:56;;;;;;;;;;;8.00;99.90;;;;;;4971573;28;19926;-75
2023/01/08 08:30:23;;;;;;;;;;;7.90;99.90;;;;;;4978697;28;19926;-77
2023/01/08 08:32:50;;;;;;;;;;;7.90;99.90;;;;;;4971574;28;19932;-75
2023/01/08 08:35:17;;;;;;;;;;;7.90;99.90;;;;;;4971069;28;19926;-76
2023/01/08 08:37:45;;;;;;;;;;;7.90;99.90;;;;;;4969674;28;19933;-75
2023/01/08 08:40:12;;;;;;;;;;;7.80;99.90;;;;;;4970386;28;19954;-74
2023/01/08 08:42:39;;;;;;;;;;;7.80;99.90;;;;;;4972254;28;20369;-73
2023/01/08 08:45:06;;;;;;;;;;;7.80;99.90;;;;;;4971344;28;19926;-74
2023/01/08 08:47:33;;;;;;;;;;;7.80;99.90;;;;;;4971090;28;20309;-74
2023/01/08 08:50:00;;;;;;;;;;;7.80;99.90;;;;;;4968125;28;19977;-75
2023/01/08 08:52:27;;;;;;;;;;;7.80;99.90;;;;;;4974172;28;19949;-75
2023/01/08 08:54:55;;;;;;;;;;;7.80;99.90;;;;;;4971238;28;20356;-77
2023/01/08 08:57:23;;;;;;;;;;;7.80;99.90;;;;;;4971232;28;20362;-76
2023/01/08 08:59:49;;;;;;;;;;;7.90;99.90;;;;;;4969054;28;19997;-76
2023/01/08 09:02:16;;;;;;;;;;;7.90;99.90;;;;;;4966320;28;19977;-78
2023/01/08 09:04:43;;;;;;;;;;;8.00;99.90;;;;;;4970913;28;19926;-76
2023/01/08 09:07:10;;;;;;;;;;;8.10;99.90;;;;;;4971082;28;19926;-75
2023/01/08 09:09:36;;;;;;;;;;;8.20;99.90;;;;;;4971975;28;20029;-75
2023/01/08 09:12:06;;;;;;;;;;;8.30;99.90;;;;;;4967122;28;20286;-75
2023/01/08 09:14:32;;;;;;;;;;;8.40;99.90;;;;;;4970450;28;19926;-74
2023/01/08 09:16:59;;;;;;;;;;;8.50;99.90;;;;;;4967054;28;19970;-76
2023/01/08 09:19:26;;;;;;;;;;;8.60;99.90;;;;;;4971168;28;19933;-75
2023/01/08 09:21:53;;;;;;;;;;;8.70;99.90;;;;;;4970742;28;19926;-75
2023/01/08 09:24:20;;;;;;;;;;;8.80;99.90;;;;;;4968922;28;20341;-77
2023/01/08 09:26:46;;;;;;;;;;;8.90;99.90;;;;;;4970908;28;19981;-74
2023/01/08 09:29:15;;;;;;;;;;;9.10;99.90;;;;;;4969697;28;19926;-74
2023/01/08 09:31:41;;;;;;;;;;;9.30;99.90;;;;;;4970583;28;19930;-74
2023/01/08 09:34:08;;;;;;;;;;;9.40;99.90;;;;;;4975529;28;19957;-75
2023/01/08 09:36:35;;;;;;;;;;;9.60;99.90;;;;;;4973483;28;20038;-75
2023/01/08 09:39:01;;;;;;;;;;;9.70;99.90;;;;;;4970048;28;19926;-73
2023/01/08 09:41:30;;;;;;;;;;;9.80;99.90;;;;;;4970348;28;19926;-76
2023/01/08 09:43:58;;;;;;;;;;;9.90;99.90;;;;;;4970515;28;19973;-77
2023/01/08 09:46:27;;;;;;;;;;;10.10;99.90;;;;;;4976646;28;19930;-76
2023/01/08 09:48:56;;;;;;;;;;;10.40;99.90;;;;;;4970015;28;19926;-74
2023/01/08 09:51:26;;;;;;;;;;;10.60;99.90;;;;;;4971055;28;19930;-76
2023/01/08 09:53:54;;;;;;;;;;;10.70;99.90;;;;;;4969531;28;19961;-75
2023/01/08 09:56:21;;;;;;;;;;;11.00;99.90;;;;;;4970224;28;19961;-74
2023/01/08 09:58:49;;;;;;;;;;;11.10;99.90;;;;;;4967543;28;20353;-77
2023/01/08 10:01:18;;;;;;;;;;;11.20;99.90;;;;;;4969650;28;20017;-77
2023/01/08 10:03:48;;;;;;;;;;;11.10;99.90;;;;;;4968685;28;19936;-75
2023/01/08 10:06:16;;;;;;;;;;;11.30;99.90;;;;;;4969888;28;20467;-76
2023/01/08 10:08:43;;;;;;;;;;;11.50;99.90;;;;;;4966642;28;20010;-76
2023/01/08 10:11:11;;;;;;;;;;;11.60;99.90;;;;;;4968372;28;19930;-78
2023/01/08 10:13:39;;;;;;;;;;;11.60;99.90;;;;;;4973704;28;20543;-77
2023/01/08 10:16:07;;;;;;;;;;;11.80;99.90;;;;;;4972386;28;19933;-75
2023/01/08 10:18:34;;;;;;;;;;;11.90;99.90;;;;;;4976932;28;19930;-76
2023/01/08 10:21:02;;;;;;;;;;;11.70;99.90;;;;;;4973450;28;19973;-76
2023/01/08 10:23:29;;;;;;;;;;;11.60;99.90;;;;;;4973662;28;20353;-76
2023/01/08 10:25:57;;;;;;;;;;;11.70;99.90;;;;;;4972504;28;20460;-77
2023/01/08 10:28:25;;;;;;;;;;;11.70;99.90;;;;;;4972199;28;19926;-76
2023/01/08 10:30:53;;;;;;;;;;;11.90;99.90;;;;;;4972294;28;19929;-76
2023/01/08 10:33:21;;;;;;;;;;;12.40;99.90;;;;;;4973701;28;19930;-74
2023/01/08 10:35:52;;;;;;;;;;;12.20;99.90;;;;;;4973842;28;19976;-74
2023/01/08 10:38:25;;;;;;;;;;;12.10;99.90;;;;;;4972876;28;19996;-74
2023/01/08 10:40:52;;;;;;;;;;;12.00;99.90;;;;;;4971955;28;19926;-74
2023/01/08 10:43:21;;;;;;;;;;;12.00;99.90;;;;;;4977843;28;19926;-74
2023/01/08 10:45:55;;;;;;;;;;;11.80;99.90;;;;;;4973509;28;19984;-76
2023/01/08 10:48:22;;;;;;;;;;;12.30;99.90;;;;;;4968680;28;20409;-75
2023/01/08 10:50:48;;;;;;;;;;;12.40;99.90;;;;;;4973591;28;20373;-74
2023/01/08 10:53:22;;;;;;;;;;;12.00;99.90;;;;;;4976236;28;19934;-75
2023/01/08 10:55:58;;;;;;;;;;;11.90;99.90;;;;;;4973625;28;19926;-75
2023/01/08 10:58:27;;;;;;;;;;;11.60;99.90;;;;;;4979606;28;19930;-74
2023/01/08 11:00:53;;;;;;;;;;;11.40;99.90;;;;;;4979756;28;19973;-74
2023/01/08 11:03:24;;;;;;;;;;;11.40;99.90;;;;;;4973097;28;19926;-74
2023/01/08 11:05:51;;;;;;;;;;;11.40;99.90;;;;;;4979493;28;19926;-75
2023/01/08 11:08:19;;;;;;;;;;;11.40;99.90;;;;;;4972988;28;19926;-73
2023/01/08 11:10:52;;;;;;;;;;;11.40;99.90;;;;;;4975487;28;19981;-75
2023/01/08 11:13:20;;;;;;;;;;;11.50;99.90;;;;;;4974036;28;19993;-76
2023/01/08 11:15:57;;;;;;;;;;;11.60;99.90;;;;;;4973283;28;19934;-75
2023/01/08 11:18:25;;;;;;;;;;;14.20;99.90;;;;;;4968685;28;19926;-74
2023/01/08 11:20:52;;;;;;;;;;;12.60;99.90;;;;;;4968741;28;19926;-73
2023/01/08 11:23:20;;;;;;;;;;;12.10;99.90;;;;;;4972766;28;19962;-75
2023/01/08 11:25:54;;;;;;;;;;;11.80;99.90;;;;;;4972491;28;19934;-74
2023/01/08 11:28:26;;;;;;;;;;;11.80;99.90;;;;;;4968124;28;19977;-73
2023/01/08 11:30:54;;;;;;;;;;;11.70;99.90;;;;;;4968942;28;19929;-73
2023/01/08 11:33:22;;;;;;;;;;;11.60;99.90;;;;;;4974001;28;19926;-75
2023/01/08 11:35:50;;;;;;;;;;;11.40;99.90;;;;;;4974111;28;19926;-75
2023/01/08 11:38:17;;;;;;;;;;;11.20;99.90;;;;;;4970301;28;19941;-72
2023/01/08 11:40:48;;;;;;;;;;;11.10;99.90;;;;;;4970948;28;20333;-75
2023/01/08 11:43:18;;;;;;;;;;;10.80;99.90;;;;;;4968322;28;19942;-75
2023/01/08 11:45:53;;;;;;;;;;;10.70;99.90;;;;;;4971828;28;20347;-75
2023/01/08 11:48:31;;;;;;;;;;;11.10;99.90;;;;;;4968211;28;19926;-73
2023/01/08 11:51:04;;;;;;;;;;;11.50;99.90;;;;;;4961953;28;19937;-74
2023/01/08 11:53:36;;;;;;;;;;;11.40;99.90;;;;;;4970277;28;19981;-74
2023/01/08 11:56:11;;;;;;;;;;;12.50;99.90;;;;;;4972126;28;19926;-74
2023/01/08 11:58:50;;;;;;;;;;;14.20;99.90;;;;;;4969093;28;19930;-74
2023/01/08 12:01:27;;;;;;;;;;;15.60;99.90;;;;;;4973317;28;19930;-74
2023/01/08 12:03:59;;;;;;;;;;;15.30;99.90;;;;;;4971837;28;19926;-76
2023/01/08 12:06:31;;;;;;;;;;;17.80;99.90;;;;;;4973346;28;20036;-74
2023/01/08 12:09:03;;;;;;;;;;;19.50;99.90;;;;;;4971495;28;19989;-73
2023/01/08 12:11:31;;;;;;;;;;;20.20;99.90;;;;;;4971441;28;19926;-75
2023/01/08 12:14:15;;;;;;;;;;;20.10;99.90;;;;;;4973556;28;19926;-74
2023/01/08 12:16:52;;;;;;;;;;;16.80;99.90;;;;;;4956723;28;19930;-74
2023/01/08 12:19:23;;;;;;;;;;;15.50;99.90;;;;;;4962688;28;19966;-74
2023/01/08 12:21:59;;;;;;;;;;;15.10;99.90;;;;;;4970566;28;19933;-75
2023/01/08 12:24:38;;;;;;;;;;;14.40;99.90;;;;;;4969079;28;19932;-78
2023/01/08 12:27:12;;;;;;;;;;;16.40;99.90;;;;;;4968967;28;19926;-76
2023/01/08 12:29:47;;;;;;;;;;;18.60;99.90;;;;;;4969743;28;19973;-77
2023/01/08 12:32:21;;;;;;;;;;;19.50;99.90;;;;;;4970001;28;19926;-76
2023/01/08 12:34:52;;;;;;;;;;;18.70;99.90;;;;;;4969829;28;19926;-75
2023/01/08 12:37:21;;;;;;;;;;;19.80;99.90;;;;;;4971669;28;19930;-75
2023/01/08 12:39:50;;;;;;;;;;;19.50;99.90;;;;;;4973374;28;19926;-75
2023/01/08 12:42:23;;;;;;;;;;;19.40;99.90;;;;;;4971956;28;19981;-77
2023/01/08 12:44:51;;;;;;;;;;;19.40;99.90;;;;;;4971287;28;20357;-76
2023/01/08 12:47:24;;;;;;;;;;;20.00;99.90;;;;;;4975081;28;19930;-76
2023/01/08 12:49:54;;;;;;;;;;;20.90;99.90;;;;;;4971303;28;20024;-76
2023/01/08 12:52:26;;;;;;;;;;;21.30;99.90;;;;;;4973888;28;19973;-76
2023/01/08 12:54:55;;;;;;;;;;;20.40;99.90;;;;;;4966019;28;19957;-77
2023/01/08 12:57:24;;;;;;;;;;;18.60;99.90;;;;;;4971357;28;20029;-75
2023/01/08 12:59:54;;;;;;;;;;;19.10;99.90;;;;;;4973011;28;19936;-75
2023/01/08 13:02:30;;;;;;;;;;;19.10;99.90;;;;;;4971502;28;19930;-76
2023/01/08 13:05:10;;;;;;;;;;;18.30;99.90;;;;;;4969339;28;19980;-76
2023/01/08 13:07:42;;;;;;;;;;;18.90;99.90;;;;;;4970921;28;19930;-75
2023/01/08 13:10:19;;;;;;;;;;;17.70;99.90;;;;;;4968766;28;19934;-76
2023/01/08 13:12:49;;;;;;;;;;;19.40;99.90;;;;;;4966125;28;20298;-76
2023/01/08 13:15:21;;;;;;;;;;;17.60;99.90;;;;;;4970782;28;20456;-76
2023/01/08 13:17:49;;;;;;;;;;;16.50;99.90;;;;;;4967675;28;19934;-74
2023/01/08 13:20:20;;;;;;;;;;;17.20;99.90;;;;;;4969807;28;20455;-76
2023/01/08 13:22:51;;;;;;;;;;;18.70;99.90;;;;;;4970701;28;20000;-76
2023/01/08 13:25:29;;;;;;;;;;;18.90;99.90;;;;;;4970740;28;19926;-74
2023/01/08 13:27:56;;;;;;;;;;;18.00;99.90;;;;;;4985057;28;19950;-75
2023/01/08 13:30:32;;;;;;;;;;;18.40;99.90;;;;;;4969753;28;19980;-77
2023/01/08 13:33:00;;;;;;;;;;;18.40;99.90;;;;;;4981828;28;19930;-75
2023/01/08 13:35:30;;;;;;;;;;;19.10;99.90;;;;;;4970571;28;19930;-75
2023/01/08 13:38:13;;;;;;;;;;;17.80;99.90;;;;;;4967567;28;19927;-74
2023/01/08 13:40:52;;;;;;;;;;;16.00;99.90;;;;;;4971185;28;19953;-76
2023/01/08 13:43:19;;;;;;;;;;;14.20;99.90;;;;;;4964312;28;19930;-74
2023/01/08 13:45:49;;;;;;;;;;;13.40;99.90;;;;;;4974454;28;19966;-75
2023/01/08 13:48:22;;;;;;;;;;;14.10;99.90;;;;;;4972129;28;19926;-72
2023/01/08 13:50:50;;;;;;;;;;;13.60;99.90;;;;;;4974732;28;19926;-75
2023/01/08 13:53:17;;;;;;;;;;;12.90;99.90;;;;;;4974296;28;20017;-74
2023/01/08 13:55:48;;;;;;;;;;;12.40;99.90;;;;;;4974649;28;19977;-73
2023/01/08 13:58:17;;;;;;;;;;;12.30;99.90;;;;;;4974082;28;19978;-76
2023/01/08 14:00:45;;;;;;;;;;;12.20;99.90;;;;;;4973374;28;19973;-74
2023/01/08 14:03:22;;;;;;;;;;;12.20;99.90;;;;;;4974440;28;20397;-73
2023/01/08 14:05:50;;;;;;;;;;;11.80;99.90;;;;;;4970258;28;19926;-72
2023/01/08 14:08:23;;;;;;;;;;;11.60;99.90;;;;;;4969635;28;20021;-71
2023/01/08 14:10:49;;;;;;;;;;;11.40;99.90;;;;;;4970770;28;19999;-73
2023/01/08 14:13:17;;;;;;;;;;;11.20;99.90;;;;;;4974093;28;20345;-72
2023/01/08 14:15:44;;;;;;;;;;;11.10;99.90;;;;;;4984288;28;19977;-74
2023/01/08 14:18:11;;;;;;;;;;;11.00;99.90;;;;;;4974437;28;19949;-72
2023/01/08 14:20:44;;;;;;;;;;;10.90;99.90;;;;;;4973833;28;19969;-72
2023/01/08 14:23:12;;;;;;;;;;;11.00;99.90;;;;;;4974143;28;20457;-72
2023/01/08 14:25:40;;;;;;;;;;;11.00;99.90;;;;;;4973504;28;19965;-73
2023/01/08 14:28:07;;;;;;;;;;;11.20;99.90;;;;;;4978960;28;19930;-73
2023/01/08 14:30:34;;;;;;;;;;;11.50;99.90;;;;;;4973451;28;19926;-72
2023/01/08 14:33:01;;;;;;;;;;;12.00;99.90;;;;;;4974070;28;19976;-73
2023/01/08 14:35:31;;;;;;;;;;;12.60;99.90;;;;;;4974218;28;19965;-73
2023/01/08 14:38:00;;;;;;;;;;;12.90;99.90;;;;;;4975651;28;19933;-72
2023/01/08 14:40:31;;;;;;;;;;;12.60;99.90;;;;;;4973198;28;19930;-72
2023/01/08 14:43:02;;;;;;;;;;;12.20;99.90;;;;;;4970921;28;19961;-72
2023/01/08 14:45:30;;;;;;;;;;;11.70;99.90;;;;;;4971121;28;20417;-72
2023/01/08 14:47:59;;;;;;;;;;;11.30;99.90;;;;;;4973757;28;19926;-75
2023/01/08 14:50:27;;;;;;;;;;;11.10;99.90;;;;;;4973038;28;19981;-73
2023/01/08 14:52:55;;;;;;;;;;;11.00;99.90;;;;;;4964240;28;19926;-75
2023/01/08 14:55:23;;;;;;;;;;;10.80;99.90;;;;;;4971136;28;20401;-72
2023/01/08 14:57:52;;;;;;;;;;;10.80;99.90;;;;;;4973665;28;19930;-73
2023/01/08 15:00:22;;;;;;;;;;;10.80;99.90;;;;;;4972290;28;19926;-73
2023/01/08 15:02:48;;;;;;;;;;;10.70;99.90;;;;;;4972802;28;20460;-73
2023/01/08 15:05:17;;;;;;;;;;;10.80;99.90;;;;;;4972594;28;20408;-72
2023/01/08 15:07:53;;;;;;;;;;;11.00;99.90;;;;;;4973203;28;19962;-68
2023/01/08 15:10:36;;;;;;;;;;;11.00;99.90;;;;;;4967930;28;19970;-68
2023/01/08 15:13:06;;;;;;;;;;;10.80;99.90;;;;;;4970195;28;19927;-81
2023/01/08 15:15:34;;;;;;;;;;;10.70;99.90;;;;;;4972470;28;19932;-73
2023/01/08 15:18:00;;;;;;;;;;;10.70;99.90;;;;;;4969317;28;19965;-74
2023/01/08 15:20:29;;;;;;;;;;;10.60;99.90;;;;;;4972919;28;20309;-72
2023/01/08 15:22:56;;;;;;;;;;;10.60;99.90;;;;;;4965818;28;19926;-71
2023/01/08 15:25:25;;;;;;;;;;;10.50;99.90;;;;;;4972309;28;20431;-73
2023/01/08 15:27:54;;;;;;;;;;;10.60;99.90;;;;;;4971987;28;19962;-72
2023/01/08 15:30:26;;;;;;;;;;;10.60;99.90;;;;;;4987912;28;19965;-73
2023/01/08 15:32:52;;;;;;;;;;;10.40;99.90;;;;;;4971742;28;20400;-73
2023/01/08 15:35:24;;;;;;;;;;;10.30;99.90;;;;;;4975975;28;19966;-74
2023/01/08 15:37:51;;;;;;;;;;;10.20;99.90;;;;;;4972373;28;19927;-75
2023/01/08 15:40:18;;;;;;;;;;;10.10;99.90;;;;;;4971426;28;19992;-71
2023/01/08 15:45:31;;;;;;;;;;;9.90;99.90;;;;;;4973567;28;19922;-75
2023/01/08 15:47:58;;;;;;;;;;;9.80;99.90;;;;;;4972017;28;19942;-72
2023/01/08 15:50:25;;;;;;;;;;;9.70;99.90;;;;;;4971004;28;19965;-76
2023/01/08 15:52:52;;;;;;;;;;;9.60;99.90;;;;;;4972173;28;19926;-75
2023/01/08 15:55:20;;;;;;;;;;;9.60;99.90;;;;;;4971915;28;20362;-73
2023/01/08 15:57:47;;;;;;;;;;;9.50;99.90;;;;;;4971874;28;19976;-76
2023/01/08 16:00:14;;;;;;;;;;;9.40;99.90;;;;;;4968114;28;19958;-76
2023/01/08 16:02:43;;;;;;;;;;;9.30;99.90;;;;;;4997751;23;19969;-75
2023/01/08 16:05:17;;;;;;;;;;;9.30;99.90;;;;;;4972783;28;19932;-77
2023/01/08 16:07:45;;;;;;;;;;;9.40;99.90;;;;;;4971896;28;19926;-73
2023/01/08 16:10:19;;;;;;;;;;;9.50;99.90;;;;;;4970780;28;19941;-73
2023/01/08 16:12:46;;;;;;;;;;;9.60;99.90;;;;;;4967128;28;19926;-75
2023/01/08 16:15:13;;;;;;;;;;;9.60;99.90;;;;;;4971614;28;19926;-75
2023/01/08 16:17:40;;;;;;;;;;;9.60;99.90;;;;;;4971499;28;19997;-75
2023/01/08 16:20:10;;;;;;;;;;;9.50;99.90;;;;;;4969386;28;19953;-76
2023/01/08 16:22:36;;;;;;;;;;;9.50;99.90;;;;;;4970001;28;19953;-76
2023/01/08 16:25:04;;;;;;;;;;;9.50;99.90;;;;;;4971122;28;19926;-75
2023/01/08 16:27:30;;;;;;;;;;;9.40;99.90;;;;;;4972710;28;19980;-75
2023/01/08 16:29:57;;;;;;;;;;;9.30;99.90;;;;;;4971787;28;19926;-67
2023/01/08 16:32:24;;;;;;;;;;;9.20;99.90;;;;;;4975985;28;19958;-70
2023/01/08 16:34:53;;;;;;;;;;;9.20;99.90;;;;;;4966505;28;19973;-74
2023/01/08 16:37:21;;;;;;;;;;;9.10;99.90;;;;;;4967216;28;19989;-72
2023/01/08 16:39:48;;;;;;;;;;;9.00;99.90;;;;;;4971708;28;19930;-72
2023/01/08 16:42:15;;;;;;;;;;;8.90;99.90;;;;;;4972443;28;19934;-72
2023/01/08 16:44:45;;;;;;;;;;;9.00;99.90;;;;;;4972647;28;20389;-73
2023/01/08 16:47:12;;;;;;;;;;;8.90;99.90;;;;;;4968646;28;20385;-72
2023/01/08 16:49:39;;;;;;;;;;;8.90;99.90;;;;;;4975395;28;19930;-72
2023/01/08 16:52:05;;;;;;;;;;;8.90;99.90;;;;;;4982165;28;19933;-73
2023/01/08 16:54:34;;;;;;;;;;;8.80;99.90;;;;;;4978993;28;19926;-72
2023/01/08 16:57:03;;;;;;;;;;;8.80;99.90;;;;;;4978180;28;19957;-73
2023/01/08 16:59:31;;;;;;;;;;;8.80;99.90;;;;;;4971414;28;19933;-74
2023/01/08 17:01:58;;;;;;;;;;;8.80;99.90;;;;;;4971572;28;19930;-74
2023/01/08 17:04:25;;;;;;;;;;;8.80;99.90;;;;;;4979112;28;19977;-74
2023/01/08 17:06:52;;;;;;;;;;;8.90;99.90;;;;;;4973425;28;19926;-74
2023/01/08 17:09:18;;;;;;;;;;;8.90;99.90;;;;;;4977522;28;20463;-73
2023/01/08 17:11:47;;;;;;;;;;;9.00;99.90;;;;;;4971776;28;19980;-74
2023/01/08 17:14:16;;;;;;;;;;;8.90;99.90;;;;;;4970421;28;19927;-73
2023/01/08 17:16:46;;;;;;;;;;;8.90;99.90;;;;;;4969872;28;19926;-72
2023/01/08 17:19:13;;;;;;;;;;;8.80;99.90;;;;;;4967120;28;20408;-74
2023/01/08 17:21:40;;;;;;;;;;;8.80;99.90;;;;;;4973818;28;19969;-69
2023/01/08 17:24:07;;;;;;;;;;;8.90;99.90;;;;;;4971376;28;19989;-70
2023/01/08 17:26:34;;;;;;;;;;;8.90;99.90;;;;;;4969706;28;19926;-74
2023/01/08 17:29:03;;;;;;;;;;;8.90;99.90;;;;;;4971558;28;20411;-78
2023/01/08 17:31:35;;;;;;;;;;;8.90;99.90;;;;;;4976423;28;19933;-76
2023/01/08 17:34:02;;;;;;;;;;;8.80;99.90;;;;;;4971726;28;19926;-75
2023/01/08 17:36:30;;;;;;;;;;;8.80;99.90;;;;;;4974176;28;19934;-74
2023/01/08 17:38:57;;;;;;;;;;;8.80;99.90;;;;;;4969692;28;20408;-73
2023/01/08 17:44:12;;;;;;;;;;;8.80;99.90;;;;;;4970560;28;19922;-73
2023/01/08 17:46:41;;;;;;;;;;;8.80;99.90;;;;;;4972576;28;19930;-74
2023/01/08 17:49:08;;;;;;;;;;;8.70;99.90;;;;;;4969815;28;19926;-74
2023/01/08 17:51:37;;;;;;;;;;;8.70;99.90;;;;;;4972934;28;19988;-74
2023/01/08 17:54:04;;;;;;;;;;;8.70;99.90;;;;;;4971187;28;19930;-74
2023/01/08 17:56:30;;;;;;;;;;;8.70;99.90;;;;;;4970445;28;19926;-73
2023/01/08 17:58:57;;;;;;;;;;;8.70;99.90;;;;;;4969466;28;19973;-73
2023/01/08 18:01:28;;;;;;;;;;;8.70;99.90;;;;;;4970244;28;20302;-73
2023/01/08 18:03:55;;;;;;;;;;;8.70;99.90;;;;;;4966371;28;20154;-72
2023/01/08 18:06:22;;;;;;;;;;;8.70;99.90;;;;;;4970532;28;19926;-73
2023/01/08 18:08:49;;;;;;;;;;;8.60;99.90;;;;;;4970121;28;19933;-70
2023/01/08 18:11:16;;;;;;;;;;;8.60;99.90;;;;;;4969640;28;19927;-73
2023/01/08 18:13:43;;;;;;;;;;;8.60;99.90;;;;;;4970720;28;19926;-74
2023/01/08 18:16:11;;;;;;;;;;;8.50;99.90;;;;;;4970951;28;20394;-71
2023/01/08 18:18:39;;;;;;;;;;;8.50;99.90;;;;;;4984633;28;19930;-71
2023/01/08 18:21:07;;;;;;;;;;;8.40;99.90;;;;;;4968530;28;20534;-70
2023/01/08 18:23:34;;;;;;;;;;;8.40;99.90;;;;;;4966947;28;19969;-78
2023/01/08 18:26:05;;;;;;;;;;;8.40;99.90;;;;;;4970582;28;19938;-79
2023/01/08 18:28:32;;;;;;;;;;;8.40;99.90;;;;;;4971096;28;19930;-80
2023/01/08 18:30:59;;;;;;;;;;;8.40;99.90;;;;;;4974357;28;19927;-79
2023/01/08 18:33:29;;;;;;;;;;;8.40;99.90;;;;;;4969424;28;19930;-81
2023/01/08 18:36:08;;;;;;;;;;;8.40;99.90;;;;;;4973623;28;19926;-71
2023/01/08 18:38:35;;;;;;;;;;;8.40;99.90;;;;;;4973525;28;20037;-70